Terminal Aerodrome Forecast
Issued by NWS

Home | Current Version | Previous Version | Text Only | Print | Product List | Glossary On
Versions: 1 2 3 4 5 6 7 8 9 10 11 12 13 14 15 16 17 18 19
027
FTUS44 KLIX 301957 AAA
TAFMSY
TAF AMD
KMSY 301957Z 3020/0118 VRB25G40KT 1SM TSRA OVC010CB
     FM302300 16015KT P6SM SCT025 OVC060
     FM010500 16009KT P6SM OVC015=

USA.gov is the U.S. government's official web portal to all federal, state and local government web resources and services.